sensor_id;sensor_type;location;lat;lon;timestamp;P1;durP1;ratioP1;P2;durP2;ratioP2
49858;SDS011;35756;52.346;13.622;2022-09-23T00:02:16;10.32;;;7.32;;
49858;SDS011;35756;52.346;13.622;2022-09-23T00:04:41;12.05;;;7.32;;
49858;SDS011;35756;52.346;13.622;2022-09-23T00:07:07;10.90;;;7.32;;
49858;SDS011;35756;52.346;13.622;2022-09-23T00:09:32;10.77;;;7.32;;
49858;SDS011;35756;52.346;13.622;2022-09-23T00:11:58;11.75;;;7.75;;
49858;SDS011;35756;52.346;13.622;2022-09-23T00:14:24;10.65;;;6.85;;
49858;SDS011;35756;52.346;13.622;2022-09-23T00:16:49;9.45;;;6.63;;
49858;SDS011;35756;52.346;13.622;2022-09-23T00:19:14;9.07;;;6.63;;
49858;SDS011;35756;52.346;13.622;2022-09-23T00:21:39;8.77;;;5.95;;
49858;SDS011;35756;52.346;13.622;2022-09-23T00:24:06;9.57;;;5.78;;
49858;SDS011;35756;52.346;13.622;2022-09-23T00:26:32;8.15;;;6.07;;
49858;SDS011;35756;52.346;13.622;2022-09-23T00:28:58;8.55;;;6.10;;
49858;SDS011;35756;52.346;13.622;2022-09-23T00:31:24;9.10;;;6.15;;
49858;SDS011;35756;52.346;13.622;2022-09-23T00:33:57;8.98;;;6.35;;
49858;SDS011;35756;52.346;13.622;2022-09-23T00:36:24;22.20;;;7.30;;
49858;SDS011;35756;52.346;13.622;2022-09-23T00:38:50;9.30;;;6.68;;
49858;SDS011;35756;52.346;13.622;2022-09-23T00:41:15;10.40;;;5.82;;
49858;SDS011;35756;52.346;13.622;2022-09-23T00:46:14;9.07;;;5.88;;
49858;SDS011;35756;52.346;13.622;2022-09-23T00:48:49;9.95;;;6.18;;
49858;SDS011;35756;52.346;13.622;2022-09-23T00:51:19;7.63;;;5.38;;
49858;SDS011;35756;52.346;13.622;2022-09-23T00:53:47;8.48;;;6.03;;
49858;SDS011;35756;52.346;13.622;2022-09-23T00:56:14;11.07;;;5.78;;
49858;SDS011;35756;52.346;13.622;2022-09-23T00:58:40;9.63;;;5.80;;
49858;SDS011;35756;52.346;13.622;2022-09-23T01:01:07;10.50;;;6.15;;
49858;SDS011;35756;52.346;13.622;2022-09-23T01:03:32;10.13;;;6.00;;
49858;SDS011;35756;52.346;13.622;2022-09-23T01:05:58;7.97;;;6.20;;
49858;SDS011;35756;52.346;13.622;2022-09-23T01:08:23;10.52;;;5.80;;
49858;SDS011;35756;52.346;13.622;2022-09-23T01:14:09;7.65;;;5.38;;
49858;SDS011;35756;52.346;13.622;2022-09-23T01:16:53;10.80;;;6.45;;
49858;SDS011;35756;52.346;13.622;2022-09-23T01:30:17;9.20;;;6.30;;
49858;SDS011;35756;52.346;13.622;2022-09-23T01:33:10;8.57;;;5.75;;
49858;SDS011;35756;52.346;13.622;2022-09-23T01:38:59;8.57;;;5.88;;
49858;SDS011;35756;52.346;13.622;2022-09-23T01:41:35;8.43;;;6.25;;
49858;SDS011;35756;52.346;13.622;2022-09-23T01:47:07;9.02;;;5.95;;
49858;SDS011;35756;52.346;13.622;2022-09-23T01:49:45;9.57;;;6.00;;
49858;SDS011;35756;52.346;13.622;2022-09-23T01:52:17;10.45;;;6.03;;
49858;SDS011;35756;52.346;13.622;2022-09-23T01:57:48;11.32;;;6.38;;
49858;SDS011;35756;52.346;13.622;2022-09-23T02:00:17;9.60;;;5.75;;
49858;SDS011;35756;52.346;13.622;2022-09-23T02:02:51;8.75;;;6.55;;
49858;SDS011;35756;52.346;13.622;2022-09-23T02:08:05;10.88;;;6.32;;
49858;SDS011;35756;52.346;13.622;2022-09-23T02:10:35;9.50;;;6.10;;
49858;SDS011;35756;52.346;13.622;2022-09-23T02:13:07;10.18;;;6.60;;
49858;SDS011;35756;52.346;13.622;2022-09-23T02:15:40;8.70;;;5.95;;
49858;SDS011;35756;52.346;13.622;2022-09-23T02:18:12;8.68;;;6.05;;
49858;SDS011;35756;52.346;13.622;2022-09-23T02:20:39;8.30;;;5.57;;
49858;SDS011;35756;52.346;13.622;2022-09-23T02:23:11;9.20;;;6.35;;
49858;SDS011;35756;52.346;13.622;2022-09-23T02:25:50;11.90;;;6.32;;
49858;SDS011;35756;52.346;13.622;2022-09-23T02:28:33;7.95;;;6.30;;
49858;SDS011;35756;52.346;13.622;2022-09-23T02:31:08;10.73;;;6.45;;
49858;SDS011;35756;52.346;13.622;2022-09-23T02:33:38;11.70;;;6.05;;
49858;SDS011;35756;52.346;13.622;2022-09-23T02:36:29;9.68;;;6.32;;
49858;SDS011;35756;52.346;13.622;2022-09-23T02:39:10;9.88;;;6.70;;
49858;SDS011;35756;52.346;13.622;2022-09-23T02:41:41;9.15;;;6.55;;
49858;SDS011;35756;52.346;13.622;2022-09-23T02:44:23;8.88;;;6.20;;
49858;SDS011;35756;52.346;13.622;2022-09-23T02:46:49;9.52;;;6.65;;
49858;SDS011;35756;52.346;13.622;2022-09-23T02:49:27;9.55;;;6.22;;
49858;SDS011;35756;52.346;13.622;2022-09-23T02:51:53;12.38;;;6.18;;
49858;SDS011;35756;52.346;13.622;2022-09-23T02:54:20;10.60;;;6.68;;
49858;SDS011;35756;52.346;13.622;2022-09-23T02:56:46;8.23;;;6.03;;
49858;SDS011;35756;52.346;13.622;2022-09-23T02:59:16;10.15;;;6.45;;
49858;SDS011;35756;52.346;13.622;2022-09-23T03:01:49;9.63;;;6.60;;
49858;SDS011;35756;52.346;13.622;2022-09-23T03:07:38;11.32;;;6.38;;
49858;SDS011;35756;52.346;13.622;2022-09-23T03:13:15;10.75;;;6.63;;
49858;SDS011;35756;52.346;13.622;2022-09-23T03:15:50;8.18;;;5.97;;
49858;SDS011;35756;52.346;13.622;2022-09-23T03:18:27;9.80;;;6.78;;
49858;SDS011;35756;52.346;13.622;2022-09-23T03:21:17;17.40;;;7.20;;
49858;SDS011;35756;52.346;13.622;2022-09-23T03:23:48;10.82;;;6.70;;
49858;SDS011;35756;52.346;13.622;2022-09-23T03:26:20;16.33;;;7.40;;
49858;SDS011;35756;52.346;13.622;2022-09-23T03:28:48;9.75;;;7.28;;
49858;SDS011;35756;52.346;13.622;2022-09-23T03:31:14;16.23;;;7.55;;
49858;SDS011;35756;52.346;13.622;2022-09-23T03:33:41;11.90;;;7.25;;
49858;SDS011;35756;52.346;13.622;2022-09-23T03:36:10;11.77;;;7.57;;
49858;SDS011;35756;52.346;13.622;2022-09-23T03:38:59;17.27;;;6.93;;
49858;SDS011;35756;52.346;13.622;2022-09-23T03:41:30;12.73;;;7.40;;
49858;SDS011;35756;52.346;13.622;2022-09-23T03:43:58;8.95;;;6.72;;
49858;SDS011;35756;52.346;13.622;2022-09-23T03:46:27;12.57;;;7.32;;
49858;SDS011;35756;52.346;13.622;2022-09-23T03:48:55;17.88;;;7.38;;
49858;SDS011;35756;52.346;13.622;2022-09-23T03:51:26;11.50;;;7.27;;
49858;SDS011;35756;52.346;13.622;2022-09-23T03:53:51;18.10;;;7.25;;
49858;SDS011;35756;52.346;13.622;2022-09-23T03:56:17;24.88;;;6.85;;
49858;SDS011;35756;52.346;13.622;2022-09-23T03:58:42;12.10;;;6.32;;
49858;SDS011;35756;52.346;13.622;2022-09-23T04:01:10;10.05;;;6.10;;
49858;SDS011;35756;52.346;13.622;2022-09-23T04:03:35;9.25;;;6.30;;
49858;SDS011;35756;52.346;13.622;2022-09-23T04:06:00;15.77;;;7.50;;
49858;SDS011;35756;52.346;13.622;2022-09-23T04:08:26;9.02;;;6.60;;
49858;SDS011;35756;52.346;13.622;2022-09-23T04:10:51;9.80;;;5.93;;
49858;SDS011;35756;52.346;13.622;2022-09-23T04:13:16;13.25;;;7.28;;
49858;SDS011;35756;52.346;13.622;2022-09-23T04:15:42;14.50;;;7.25;;
49858;SDS011;35756;52.346;13.622;2022-09-23T04:18:07;35.33;;;8.15;;
49858;SDS011;35756;52.346;13.622;2022-09-23T04:20:32;25.73;;;8.13;;
49858;SDS011;35756;52.346;13.622;2022-09-23T04:22:57;11.02;;;7.07;;
49858;SDS011;35756;52.346;13.622;2022-09-23T04:25:23;12.02;;;7.22;;
49858;SDS011;35756;52.346;13.622;2022-09-23T04:27:48;9.88;;;6.63;;
49858;SDS011;35756;52.346;13.622;2022-09-23T04:30:13;10.20;;;6.38;;
49858;SDS011;35756;52.346;13.622;2022-09-23T04:32:39;8.73;;;6.35;;
49858;SDS011;35756;52.346;13.622;2022-09-23T04:35:05;9.00;;;6.28;;
49858;SDS011;35756;52.346;13.622;2022-09-23T04:37:31;9.38;;;6.72;;
49858;SDS011;35756;52.346;13.622;2022-09-23T04:39:56;8.32;;;6.05;;
49858;SDS011;35756;52.346;13.622;2022-09-23T04:42:21;8.23;;;6.43;;
49858;SDS011;35756;52.346;13.622;2022-09-23T04:44:47;8.75;;;6.53;;
49858;SDS011;35756;52.346;13.622;2022-09-23T04:47:12;13.85;;;6.03;;
49858;SDS011;35756;52.346;13.622;2022-09-23T04:49:37;8.40;;;5.90;;
49858;SDS011;35756;52.346;13.622;2022-09-23T04:52:03;8.45;;;6.10;;
49858;SDS011;35756;52.346;13.622;2022-09-23T04:54:29;9.10;;;6.03;;
49858;SDS011;35756;52.346;13.622;2022-09-23T04:56:55;12.05;;;6.30;;
49858;SDS011;35756;52.346;13.622;2022-09-23T04:59:20;10.23;;;6.50;;
49858;SDS011;35756;52.346;13.622;2022-09-23T05:01:45;10.25;;;5.63;;
49858;SDS011;35756;52.346;13.622;2022-09-23T05:04:10;8.02;;;6.32;;
49858;SDS011;35756;52.346;13.622;2022-09-23T05:06:37;8.80;;;5.88;;
49858;SDS011;35756;52.346;13.622;2022-09-23T05:09:04;11.45;;;6.28;;
49858;SDS011;35756;52.346;13.622;2022-09-23T05:11:31;12.68;;;6.85;;
49858;SDS011;35756;52.346;13.622;2022-09-23T05:13:56;9.50;;;6.63;;
49858;SDS011;35756;52.346;13.622;2022-09-23T05:16:22;9.90;;;6.25;;
49858;SDS011;35756;52.346;13.622;2022-09-23T05:18:48;8.07;;;6.00;;
49858;SDS011;35756;52.346;13.622;2022-09-23T05:21:17;8.02;;;6.20;;
49858;SDS011;35756;52.346;13.622;2022-09-23T05:23:47;8.32;;;5.68;;
49858;SDS011;35756;52.346;13.622;2022-09-23T05:26:14;8.38;;;6.47;;
49858;SDS011;35756;52.346;13.622;2022-09-23T05:28:39;8.65;;;6.25;;
49858;SDS011;35756;52.346;13.622;2022-09-23T05:31:06;8.18;;;5.95;;
49858;SDS011;35756;52.346;13.622;2022-09-23T05:33:40;13.80;;;6.68;;
49858;SDS011;35756;52.346;13.622;2022-09-23T05:36:06;7.95;;;5.43;;
49858;SDS011;35756;52.346;13.622;2022-09-23T05:38:31;9.13;;;5.80;;
49858;SDS011;35756;52.346;13.622;2022-09-23T05:40:57;9.15;;;6.18;;
49858;SDS011;35756;52.346;13.622;2022-09-23T05:43:24;7.60;;;5.95;;
49858;SDS011;35756;52.346;13.622;2022-09-23T05:45:50;8.30;;;5.90;;
49858;SDS011;35756;52.346;13.622;2022-09-23T05:48:15;8.48;;;5.78;;
49858;SDS011;35756;52.346;13.622;2022-09-23T05:50:50;11.23;;;6.10;;
49858;SDS011;35756;52.346;13.622;2022-09-23T05:53:16;7.60;;;5.47;;
49858;SDS011;35756;52.346;13.622;2022-09-23T05:55:42;9.63;;;5.55;;
49858;SDS011;35756;52.346;13.622;2022-09-23T05:58:08;10.23;;;6.10;;
49858;SDS011;35756;52.346;13.622;2022-09-23T06:00:34;9.43;;;5.28;;
49858;SDS011;35756;52.346;13.622;2022-09-23T06:02:59;8.55;;;5.57;;
49858;SDS011;35756;52.346;13.622;2022-09-23T06:05:24;10.05;;;5.15;;
49858;SDS011;35756;52.346;13.622;2022-09-23T06:07:50;9.10;;;5.35;;
49858;SDS011;35756;52.346;13.622;2022-09-23T06:10:15;6.47;;;4.90;;
49858;SDS011;35756;52.346;13.622;2022-09-23T06:12:40;8.55;;;5.60;;
49858;SDS011;35756;52.346;13.622;2022-09-23T06:15:08;7.40;;;5.43;;
49858;SDS011;35756;52.346;13.622;2022-09-23T06:17:34;8.60;;;5.72;;
49858;SDS011;35756;52.346;13.622;2022-09-23T06:19:59;8.15;;;5.18;;
49858;SDS011;35756;52.346;13.622;2022-09-23T06:22:25;6.88;;;5.32;;
49858;SDS011;35756;52.346;13.622;2022-09-23T06:24:50;8.27;;;5.20;;
49858;SDS011;35756;52.346;13.622;2022-09-23T06:27:15;9.23;;;6.60;;
49858;SDS011;35756;52.346;13.622;2022-09-23T06:29:41;8.48;;;6.20;;
49858;SDS011;35756;52.346;13.622;2022-09-23T06:32:06;8.25;;;6.85;;
49858;SDS011;35756;52.346;13.622;2022-09-23T06:34:31;8.55;;;6.90;;
49858;SDS011;35756;52.346;13.622;2022-09-23T06:36:56;9.82;;;6.70;;
49858;SDS011;35756;52.346;13.622;2022-09-23T06:39:22;12.50;;;7.38;;
49858;SDS011;35756;52.346;13.622;2022-09-23T06:41:47;12.10;;;6.68;;
49858;SDS011;35756;52.346;13.622;2022-09-23T06:44:13;10.85;;;7.07;;
49858;SDS011;35756;52.346;13.622;2022-09-23T06:46:38;12.25;;;7.38;;
49858;SDS011;35756;52.346;13.622;2022-09-23T06:49:03;13.65;;;7.20;;
49858;SDS011;35756;52.346;13.622;2022-09-23T06:51:29;9.80;;;6.85;;
49858;SDS011;35756;52.346;13.622;2022-09-23T06:53:54;11.00;;;6.18;;
49858;SDS011;35756;52.346;13.622;2022-09-23T06:56:19;10.30;;;6.85;;
49858;SDS011;35756;52.346;13.622;2022-09-23T06:58:46;9.35;;;6.28;;
49858;SDS011;35756;52.346;13.622;2022-09-23T07:01:12;7.88;;;6.25;;
49858;SDS011;35756;52.346;13.622;2022-09-23T07:03:40;8.65;;;5.95;;
49858;SDS011;35756;52.346;13.622;2022-09-23T07:06:06;9.10;;;6.45;;
49858;SDS011;35756;52.346;13.622;2022-09-23T07:08:32;8.30;;;5.82;;
49858;SDS011;35756;52.346;13.622;2022-09-23T07:10:58;7.75;;;6.20;;
49858;SDS011;35756;52.346;13.622;2022-09-23T07:13:24;8.60;;;6.18;;
49858;SDS011;35756;52.346;13.622;2022-09-23T07:15:50;7.50;;;6.30;;
49858;SDS011;35756;52.346;13.622;2022-09-23T07:18:16;7.72;;;6.50;;
49858;SDS011;35756;52.346;13.622;2022-09-23T07:20:42;8.82;;;6.50;;
49858;SDS011;35756;52.346;13.622;2022-09-23T07:23:07;7.47;;;6.60;;
49858;SDS011;35756;52.346;13.622;2022-09-23T07:25:33;11.20;;;7.88;;
49858;SDS011;35756;52.346;13.622;2022-09-23T07:27:58;9.10;;;6.60;;
49858;SDS011;35756;52.346;13.622;2022-09-23T07:30:24;11.02;;;7.25;;
49858;SDS011;35756;52.346;13.622;2022-09-23T07:32:50;9.85;;;7.13;;
49858;SDS011;35756;52.346;13.622;2022-09-23T07:35:16;9.02;;;7.28;;
49858;SDS011;35756;52.346;13.622;2022-09-23T07:37:41;8.52;;;7.10;;
49858;SDS011;35756;52.346;13.622;2022-09-23T07:40:06;11.55;;;7.50;;
49858;SDS011;35756;52.346;13.622;2022-09-23T07:42:32;10.15;;;7.18;;
49858;SDS011;35756;52.346;13.622;2022-09-23T07:44:57;8.55;;;6.70;;
49858;SDS011;35756;52.346;13.622;2022-09-23T07:47:22;8.40;;;6.78;;
49858;SDS011;35756;52.346;13.622;2022-09-23T07:49:47;7.78;;;6.00;;
49858;SDS011;35756;52.346;13.622;2022-09-23T07:52:13;9.30;;;6.70;;
49858;SDS011;35756;52.346;13.622;2022-09-23T07:54:38;9.55;;;7.45;;
49858;SDS011;35756;52.346;13.622;2022-09-23T07:57:03;10.48;;;7.05;;
49858;SDS011;35756;52.346;13.622;2022-09-23T07:59:29;11.27;;;7.38;;
49858;SDS011;35756;52.346;13.622;2022-09-23T08:01:54;9.00;;;7.18;;
49858;SDS011;35756;52.346;13.622;2022-09-23T08:06:57;7.88;;;5.53;;
49858;SDS011;35756;52.346;13.622;2022-09-23T08:09:27;7.07;;;5.70;;
49858;SDS011;35756;52.346;13.622;2022-09-23T08:11:55;8.85;;;5.45;;
49858;SDS011;35756;52.346;13.622;2022-09-23T08:14:21;8.45;;;5.57;;
49858;SDS011;35756;52.346;13.622;2022-09-23T08:16:46;10.93;;;6.32;;
49858;SDS011;35756;52.346;13.622;2022-09-23T08:19:12;11.98;;;5.57;;
49858;SDS011;35756;52.346;13.622;2022-09-23T08:21:38;8.52;;;5.03;;
49858;SDS011;35756;52.346;13.622;2022-09-23T08:24:04;7.70;;;4.60;;
49858;SDS011;35756;52.346;13.622;2022-09-23T08:26:30;6.18;;;4.88;;
49858;SDS011;35756;52.346;13.622;2022-09-23T08:28:58;5.50;;;4.07;;
49858;SDS011;35756;52.346;13.622;2022-09-23T08:31:23;6.28;;;4.50;;
49858;SDS011;35756;52.346;13.622;2022-09-23T08:33:52;8.60;;;4.43;;
49858;SDS011;35756;52.346;13.622;2022-09-23T08:36:21;6.80;;;4.25;;
49858;SDS011;35756;52.346;13.622;2022-09-23T08:38:47;6.93;;;4.78;;
49858;SDS011;35756;52.346;13.622;2022-09-23T08:41:19;6.30;;;4.18;;
49858;SDS011;35756;52.346;13.622;2022-09-23T08:44:03;7.00;;;4.45;;
49858;SDS011;35756;52.346;13.622;2022-09-23T08:46:36;6.40;;;4.00;;
49858;SDS011;35756;52.346;13.622;2022-09-23T08:49:05;5.88;;;4.10;;
49858;SDS011;35756;52.346;13.622;2022-09-23T08:51:42;7.15;;;3.85;;
49858;SDS011;35756;52.346;13.622;2022-09-23T08:54:10;5.63;;;4.03;;
49858;SDS011;35756;52.346;13.622;2022-09-23T08:56:36;6.38;;;3.90;;
49858;SDS011;35756;52.346;13.622;2022-09-23T09:01:45;7.82;;;4.00;;
49858;SDS011;35756;52.346;13.622;2022-09-23T09:04:21;6.35;;;3.70;;
49858;SDS011;35756;52.346;13.622;2022-09-23T09:06:54;6.55;;;3.47;;
49858;SDS011;35756;52.346;13.622;2022-09-23T09:09:35;8.63;;;3.38;;
49858;SDS011;35756;52.346;13.622;2022-09-23T09:12:17;4.85;;;3.42;;
49858;SDS011;35756;52.346;13.622;2022-09-23T09:15:05;6.43;;;4.25;;
49858;SDS011;35756;52.346;13.622;2022-09-23T09:17:36;6.28;;;3.45;;
49858;SDS011;35756;52.346;13.622;2022-09-23T09:22:45;7.70;;;3.45;;
49858;SDS011;35756;52.346;13.622;2022-09-23T09:28:23;4.97;;;2.95;;
49858;SDS011;35756;52.346;13.622;2022-09-23T09:30:55;4.80;;;2.92;;
49858;SDS011;35756;52.346;13.622;2022-09-23T09:33:26;3.75;;;2.80;;
49858;SDS011;35756;52.346;13.622;2022-09-23T09:36:00;5.18;;;3.13;;
49858;SDS011;35756;52.346;13.622;2022-09-23T09:38:32;5.90;;;3.20;;
49858;SDS011;35756;52.346;13.622;2022-09-23T09:40:59;8.27;;;3.10;;
49858;SDS011;35756;52.346;13.622;2022-09-23T09:43:31;4.85;;;2.83;;
49858;SDS011;35756;52.346;13.622;2022-09-23T09:48:37;5.53;;;3.00;;
49858;SDS011;35756;52.346;13.622;2022-09-23T09:51:17;5.10;;;2.70;;
49858;SDS011;35756;52.346;13.622;2022-09-23T09:53:45;4.07;;;3.03;;
49858;SDS011;35756;52.346;13.622;2022-09-23T09:56:12;4.15;;;2.67;;
49858;SDS011;35756;52.346;13.622;2022-09-23T09:58:46;5.05;;;2.97;;
49858;SDS011;35756;52.346;13.622;2022-09-23T10:01:32;4.50;;;2.85;;
49858;SDS011;35756;52.346;13.622;2022-09-23T10:04:05;4.32;;;2.92;;
49858;SDS011;35756;52.346;13.622;2022-09-23T10:07:02;5.95;;;3.05;;
49858;SDS011;35756;52.346;13.622;2022-09-23T10:09:39;4.70;;;2.83;;
49858;SDS011;35756;52.346;13.622;2022-09-23T10:14:39;3.83;;;2.63;;
49858;SDS011;35756;52.346;13.622;2022-09-23T10:17:05;4.68;;;2.80;;
49858;SDS011;35756;52.346;13.622;2022-09-23T10:19:31;4.15;;;3.10;;
49858;SDS011;35756;52.346;13.622;2022-09-23T10:22:03;5.00;;;2.80;;
49858;SDS011;35756;52.346;13.622;2022-09-23T10:24:39;4.22;;;2.50;;
49858;SDS011;35756;52.346;13.622;2022-09-23T10:27:09;3.25;;;2.30;;
49858;SDS011;35756;52.346;13.622;2022-09-23T10:29:36;4.90;;;2.70;;
49858;SDS011;35756;52.346;13.622;2022-09-23T10:34:56;3.70;;;2.55;;
49858;SDS011;35756;52.346;13.622;2022-09-23T10:37:26;3.70;;;2.47;;
49858;SDS011;35756;52.346;13.622;2022-09-23T10:39:55;2.53;;;2.03;;
49858;SDS011;35756;52.346;13.622;2022-09-23T10:42:46;4.60;;;2.33;;
49858;SDS011;35756;52.346;13.622;2022-09-23T10:45:37;3.75;;;2.58;;
49858;SDS011;35756;52.346;13.622;2022-09-23T10:48:39;3.67;;;2.40;;
49858;SDS011;35756;52.346;13.622;2022-09-23T10:51:12;3.28;;;2.30;;
49858;SDS011;35756;52.346;13.622;2022-09-23T10:54:00;4.45;;;2.30;;
49858;SDS011;35756;52.346;13.622;2022-09-23T10:56:35;2.55;;;2.10;;
49858;SDS011;35756;52.346;13.622;2022-09-23T11:02:00;3.13;;;2.33;;
49858;SDS011;35756;52.346;13.622;2022-09-23T11:07:39;3.33;;;2.45;;
49858;SDS011;35756;52.346;13.622;2022-09-23T11:13:20;5.78;;;4.15;;
49858;SDS011;35756;52.346;13.622;2022-09-23T11:18:42;3.85;;;2.30;;
49858;SDS011;35756;52.346;13.622;2022-09-23T11:21:26;2.97;;;2.30;;
49858;SDS011;35756;52.346;13.622;2022-09-23T11:24:23;5.68;;;2.90;;
49858;SDS011;35756;52.346;13.622;2022-09-23T11:27:11;3.15;;;2.15;;
49858;SDS011;35756;52.346;13.622;2022-09-23T11:35:51;5.00;;;2.13;;
49858;SDS011;35756;52.346;13.622;2022-09-23T11:38:20;2.92;;;2.30;;
49858;SDS011;35756;52.346;13.622;2022-09-23T11:43:46;3.40;;;2.10;;
49858;SDS011;35756;52.346;13.622;2022-09-23T11:46:36;2.67;;;2.00;;
49858;SDS011;35756;52.346;13.622;2022-09-23T11:49:13;2.55;;;2.00;;
49858;SDS011;35756;52.346;13.622;2022-09-23T11:54:48;2.97;;;2.10;;
49858;SDS011;35756;52.346;13.622;2022-09-23T11:57:21;3.78;;;2.20;;
49858;SDS011;35756;52.346;13.622;2022-09-23T11:59:50;4.07;;;2.58;;
49858;SDS011;35756;52.346;13.622;2022-09-23T12:02:23;4.40;;;2.78;;
49858;SDS011;35756;52.346;13.622;2022-09-23T12:05:10;3.33;;;2.30;;
49858;SDS011;35756;52.346;13.622;2022-09-23T12:13:32;2.97;;;1.90;;
49858;SDS011;35756;52.346;13.622;2022-09-23T12:19:14;3.17;;;2.17;;
49858;SDS011;35756;52.346;13.622;2022-09-23T12:21:52;2.55;;;1.90;;
49858;SDS011;35756;52.346;13.622;2022-09-23T12:24:41;4.65;;;2.30;;
49858;SDS011;35756;52.346;13.622;2022-09-23T12:27:16;2.33;;;1.80;;
49858;SDS011;35756;52.346;13.622;2022-09-23T12:29:48;2.30;;;1.75;;
49858;SDS011;35756;52.346;13.622;2022-09-23T12:32:18;4.47;;;2.00;;
49858;SDS011;35756;52.346;13.622;2022-09-23T12:34:47;2.28;;;1.88;;
49858;SDS011;35756;52.346;13.622;2022-09-23T12:37:24;3.63;;;1.92;;
49858;SDS011;35756;52.346;13.622;2022-09-23T12:39:51;2.40;;;1.80;;
49858;SDS011;35756;52.346;13.622;2022-09-23T12:42:17;2.28;;;1.63;;
49858;SDS011;35756;52.346;13.622;2022-09-23T12:44:45;2.88;;;2.00;;
49858;SDS011;35756;52.346;13.622;2022-09-23T12:49:49;4.60;;;1.83;;
49858;SDS011;35756;52.346;13.622;2022-09-23T12:54:43;2.72;;;1.80;;
49858;SDS011;35756;52.346;13.622;2022-09-23T12:57:12;3.13;;;2.20;;
49858;SDS011;35756;52.346;13.622;2022-09-23T13:02:40;2.70;;;1.90;;
49858;SDS011;35756;52.346;13.622;2022-09-23T13:05:09;3.28;;;1.90;;
49858;SDS011;35756;52.346;13.622;2022-09-23T13:08:34;2.72;;;2.00;;
49858;SDS011;35756;52.346;13.622;2022-09-23T13:10:59;3.03;;;1.67;;
49858;SDS011;35756;52.346;13.622;2022-09-23T13:13:32;3.00;;;1.70;;
49858;SDS011;35756;52.346;13.622;2022-09-23T13:18:49;2.78;;;1.73;;
49858;SDS011;35756;52.346;13.622;2022-09-23T13:21:17;2.95;;;1.95;;
49858;SDS011;35756;52.346;13.622;2022-09-23T13:24:09;2.45;;;1.70;;
49858;SDS011;35756;52.346;13.622;2022-09-23T13:26:49;3.33;;;1.75;;
49858;SDS011;35756;52.346;13.622;2022-09-23T13:29:28;1.70;;;1.60;;
49858;SDS011;35756;52.346;13.622;2022-09-23T13:31:57;2.30;;;1.70;;
49858;SDS011;35756;52.346;13.622;2022-09-23T13:34:23;2.03;;;1.60;;
49858;SDS011;35756;52.346;13.622;2022-09-23T13:36:52;2.15;;;1.80;;
49858;SDS011;35756;52.346;13.622;2022-09-23T13:39:27;2.00;;;1.80;;
49858;SDS011;35756;52.346;13.622;2022-09-23T13:41:55;2.30;;;1.70;;
49858;SDS011;35756;52.346;13.622;2022-09-23T13:44:24;2.55;;;2.00;;
49858;SDS011;35756;52.346;13.622;2022-09-23T13:46:52;3.22;;;2.10;;
49858;SDS011;35756;52.346;13.622;2022-09-23T13:49:24;3.22;;;2.28;;
49858;SDS011;35756;52.346;13.622;2022-09-23T13:51:52;3.35;;;2.30;;
49858;SDS011;35756;52.346;13.622;2022-09-23T13:54:26;3.15;;;2.13;;
49858;SDS011;35756;52.346;13.622;2022-09-23T13:56:53;2.60;;;1.90;;
49858;SDS011;35756;52.346;13.622;2022-09-23T13:59:21;4.70;;;2.05;;
49858;SDS011;35756;52.346;13.622;2022-09-23T14:01:49;3.17;;;1.85;;
49858;SDS011;35756;52.346;13.622;2022-09-23T14:04:22;2.78;;;1.70;;
49858;SDS011;35756;52.346;13.622;2022-09-23T14:06:48;3.85;;;1.80;;
49858;SDS011;35756;52.346;13.622;2022-09-23T14:09:13;5.18;;;1.98;;
49858;SDS011;35756;52.346;13.622;2022-09-23T14:11:39;3.30;;;2.03;;
49858;SDS011;35756;52.346;13.622;2022-09-23T14:14:05;3.40;;;1.90;;
49858;SDS011;35756;52.346;13.622;2022-09-23T14:16:31;2.72;;;2.00;;
49858;SDS011;35756;52.346;13.622;2022-09-23T14:19:00;2.97;;;1.90;;
49858;SDS011;35756;52.346;13.622;2022-09-23T14:21:33;2.83;;;1.98;;
49858;SDS011;35756;52.346;13.622;2022-09-23T14:26:52;3.63;;;1.73;;
49858;SDS011;35756;52.346;13.622;2022-09-23T14:29:22;3.05;;;1.58;;
49858;SDS011;35756;52.346;13.622;2022-09-23T14:31:53;3.90;;;1.90;;
49858;SDS011;35756;52.346;13.622;2022-09-23T14:34:44;2.40;;;1.75;;
49858;SDS011;35756;52.346;13.622;2022-09-23T14:37:19;2.97;;;1.77;;
49858;SDS011;35756;52.346;13.622;2022-09-23T14:40:08;2.90;;;1.65;;
49858;SDS011;35756;52.346;13.622;2022-09-23T14:42:37;2.28;;;1.42;;
49858;SDS011;35756;52.346;13.622;2022-09-23T14:45:05;2.55;;;2.00;;
49858;SDS011;35756;52.346;13.622;2022-09-23T14:47:31;3.53;;;1.80;;
49858;SDS011;35756;52.346;13.622;2022-09-23T14:49:57;3.90;;;1.60;;
49858;SDS011;35756;52.346;13.622;2022-09-23T14:52:48;2.60;;;1.70;;
49858;SDS011;35756;52.346;13.622;2022-09-23T14:55:14;2.25;;;1.70;;
49858;SDS011;35756;52.346;13.622;2022-09-23T14:57:40;4.35;;;1.70;;
49858;SDS011;35756;52.346;13.622;2022-09-23T15:00:11;3.40;;;1.73;;
49858;SDS011;35756;52.346;13.622;2022-09-23T15:02:43;1.95;;;1.60;;
49858;SDS011;35756;52.346;13.622;2022-09-23T15:05:14;2.40;;;1.60;;
49858;SDS011;35756;52.346;13.622;2022-09-23T15:07:40;2.42;;;1.67;;
49858;SDS011;35756;52.346;13.622;2022-09-23T15:10:16;3.17;;;1.40;;
49858;SDS011;35756;52.346;13.622;2022-09-23T15:12:43;1.98;;;1.55;;
49858;SDS011;35756;52.346;13.622;2022-09-23T15:15:11;1.98;;;1.42;;
49858;SDS011;35756;52.346;13.622;2022-09-23T15:17:37;2.17;;;1.52;;
49858;SDS011;35756;52.346;13.622;2022-09-23T15:20:07;2.33;;;1.55;;
49858;SDS011;35756;52.346;13.622;2022-09-23T15:22:47;3.95;;;1.98;;
49858;SDS011;35756;52.346;13.622;2022-09-23T15:25:24;2.92;;;2.00;;
49858;SDS011;35756;52.346;13.622;2022-09-23T15:27:58;3.00;;;1.80;;
49858;SDS011;35756;52.346;13.622;2022-09-23T15:30:38;2.03;;;1.80;;
49858;SDS011;35756;52.346;13.622;2022-09-23T15:33:04;2.40;;;1.88;;
49858;SDS011;35756;52.346;13.622;2022-09-23T15:35:30;5.03;;;1.90;;
49858;SDS011;35756;52.346;13.622;2022-09-23T15:37:56;2.95;;;1.75;;
49858;SDS011;35756;52.346;13.622;2022-09-23T15:40:23;4.15;;;1.88;;
49858;SDS011;35756;52.346;13.622;2022-09-23T15:42:54;3.88;;;1.88;;
49858;SDS011;35756;52.346;13.622;2022-09-23T15:45:31;3.85;;;1.80;;
49858;SDS011;35756;52.346;13.622;2022-09-23T15:48:00;4.47;;;1.88;;
49858;SDS011;35756;52.346;13.622;2022-09-23T15:50:30;2.42;;;1.90;;
49858;SDS011;35756;52.346;13.622;2022-09-23T15:52:57;3.95;;;2.20;;
49858;SDS011;35756;52.346;13.622;2022-09-23T15:55:23;5.70;;;2.20;;
49858;SDS011;35756;52.346;13.622;2022-09-23T15:57:49;4.68;;;2.83;;
49858;SDS011;35756;52.346;13.622;2022-09-23T16:00:15;4.40;;;2.90;;
49858;SDS011;35756;52.346;13.622;2022-09-23T16:02:44;4.20;;;2.60;;
49858;SDS011;35756;52.346;13.622;2022-09-23T16:05:13;4.90;;;3.60;;
49858;SDS011;35756;52.346;13.622;2022-09-23T16:07:42;7.47;;;3.55;;
49858;SDS011;35756;52.346;13.622;2022-09-23T16:10:08;7.25;;;4.18;;
49858;SDS011;35756;52.346;13.622;2022-09-23T16:12:33;7.47;;;3.90;;
49858;SDS011;35756;52.346;13.622;2022-09-23T16:14:58;6.40;;;3.88;;
49858;SDS011;35756;52.346;13.622;2022-09-23T16:17:23;5.50;;;3.67;;
49858;SDS011;35756;52.346;13.622;2022-09-23T16:19:52;6.75;;;3.97;;
49858;SDS011;35756;52.346;13.622;2022-09-23T16:22:17;5.50;;;3.92;;
49858;SDS011;35756;52.346;13.622;2022-09-23T16:24:42;5.78;;;4.05;;
49858;SDS011;35756;52.346;13.622;2022-09-23T16:27:08;9.85;;;5.50;;
49858;SDS011;35756;52.346;13.622;2022-09-23T16:29:35;9.10;;;4.93;;